Priwall — V2OX8 — position and weather

sailwx.info

Track history (hours):
 
Tides and Currents Weather Stations Pressure Air Temp Water Temp Dewpoint Dewpoint Depression Visibility Wind Speed Wind Dir Waves Ship Positions

Priwall

Last reported at 2014-Aug-20 21:31 UTC. Time now 2014-Aug-20 22:27 UTC.
Position N 51°30' W 002°43'.

Length 88 m; draft 4.5 m.

Type: Cargo ship. MMSI: 304739000.

Date/timePositionNaut miles runAvg speedWind from/ knotsBaromVisibWave heightAir tempDewpointWater temp
2014-Aug-20 21:31N 51°30' W 002°43'0 0.0
2014-Aug-20 20:31N 51°30' W 002°43'0 0.0
2014-Aug-20 19:30N 51°30' W 002°43'0 0.0
2014-Aug-20 18:32N 51°30' W 002°43'0 0.0
2014-Aug-20 17:33N 51°30' W 002°43'0 0.0
2014-Aug-20 16:32N 51°30' W 002°43'0 0.0
2014-Aug-20 15:29N 51°30' W 002°43'0 0.0
2014-Aug-20 14:32N 51°30' W 002°43'0 0.0
2014-Aug-20 13:22N 51°30' W 002°43'0 0.3
2014-Aug-20 12:28N 51°30' W 002°43'12 8.6
2014-Aug-20 11:05N 51°26' W 003°02'611.4
2014-Aug-20 10:33N 51°23' W 003°10'9 8.1
2014-Aug-20 09:30N 51°20' W 003°23'87 7.0
2014-Aug-19 21:06N 50°38' W 005°23'4 8.1
2014-Aug-19 20:33N 50°35' W 005°28'8 8.2
2014-Aug-19 19:33N 50°29' W 005°38'217 6.6
2014-Aug-18 10:31N 50°33' E 000°03'9 9.0
2014-Aug-18 09:32N 50°35' E 000°17'1010.2
2014-Aug-18 08:33N 50°38' E 000°32'9 9.1
2014-Aug-18 07:33N 50°43' E 000°44'8 8.4
2014-Aug-18 06:33N 50°48' E 000°55'22 7.4
2014-Aug-18 03:33N 51°02' E 001°22'8 7.9
2014-Aug-18 02:33N 51°06' E 001°32'9 9.4
2014-Aug-18 01:34N 51°12' E 001°44'1010.2
2014-Aug-18 00:34N 51°21' E 001°52'133 6.6
2014-Aug-17 04:31N 53°04' E 004°11'33 7.3
2014-Aug-17 00:03N 53°30' E 004°43'5 6.6
2014-Aug-16 23:17N 53°32' E 004°51'5 6.2
2014-Aug-16 22:33N 53°33' E 004°58'6 5.7
2014-Aug-16 21:33N 53°35' E 005°07'6 5.8
2014-Aug-16 20:33N 53°37' E 005°17'7 6.9
2014-Aug-16 19:33N 53°39' E 005°27'9 8.5
2014-Aug-16 18:33N 53°42' E 005°41'9 9.2
2014-Aug-16 17:33N 53°45' E 005°56'57 7.8
2014-Aug-16 10:15N 53°60' E 007°29'6 8.1
2014-Aug-16 09:33N 54°01' E 007°38'9 8.8
2014-Aug-16 08:33N 54°01' E 007°53'10 9.6
2014-Aug-16 07:33N 54°01' E 008°10'1111.2
2014-Aug-16 06:33N 53°59' E 008°28'1010.2
2014-Aug-16 05:33N 53°53' E 008°43'8 7.9
2014-Aug-16 04:33N 53°51' E 008°55'7 7.3
2014-Aug-16 03:33N 53°53' E 009°07'1 1.2
2014-Aug-16 02:33N 53°54' E 009°09'5 4.8
2014-Aug-16 01:33N 53°57' E 009°14'6 5.7
2014-Aug-16 00:33N 54°02' E 009°18'6 6.4
2014-Aug-15 23:33N 54°08' E 009°21'7 6.7
2014-Aug-15 22:33N 54°11' E 009°31'73 6.0
2014-Aug-15 10:28N 54°31' E 011°31'7 7.4
2014-Aug-15 09:33N 54°28' E 011°42'7 7.3
2014-Aug-15 08:33N 54°27' E 011°54'8 7.9
2014-Aug-15 07:32N 54°27' E 012°08'11 9.0
2014-Aug-15 06:18N 54°37' E 012°16'8 9.3
2014-Aug-15 05:28N 54°42' E 012°27'9 9.5
2014-Aug-15 04:33N 54°46' E 012°40'28 9.4
2014-Aug-15 01:32N 54°56' E 013°26'10 9.5
2014-Aug-15 00:31N 54°59' E 013°42'9 9.3
2014-Aug-14 23:33N 55°03' E 013°57'21 9.1
2014-Aug-14 21:15N 55°17' E 014°23'7 9.1
2014-Aug-14 20:28N 55°23' E 014°31'10 8.9
2014-Aug-14 19:19N 55°29' E 014°45'8 8.8
2014-Aug-14 18:24N 55°33' E 014°58'10 8.7
2014-Aug-14 17:18N 55°38' E 015°12'8 8.5
2014-Aug-14 16:18N 55°42' E 015°25'6 8.4
2014-Aug-14 15:33N 55°45' E 015°35'11 8.6
2014-Aug-14 14:14N 55°51' E 015°52'93 9.4
2014-Aug-14 04:18N 56°38' E 018°18'  
Track history (hours):
 
Tides and Currents Weather Stations Pressure Air Temp Water Temp Dewpoint Dewpoint Depression Visibility Wind Speed Wind Dir Waves Ship Positions

Priwall

Last reported at 2014-Aug-20 21:31 UTC. Time now 2014-Aug-20 22:27 UTC.
Position N 51°30' W 002°43'.

Length 88 m; draft 4.5 m.

Type: Cargo ship. MMSI: 304739000.

Date/timePositionNaut miles runAvg speedWind from/ knotsBaromVisibWave heightAir tempDewpointWater temp
2014-Aug-20 21:31N 51°30' W 002°43'0 0.0
2014-Aug-20 20:31N 51°30' W 002°43'0 0.0
2014-Aug-20 19:30N 51°30' W 002°43'0 0.0
2014-Aug-20 18:32N 51°30' W 002°43'0 0.0
2014-Aug-20 17:33N 51°30' W 002°43'0 0.0
2014-Aug-20 16:32N 51°30' W 002°43'0 0.0
2014-Aug-20 15:29N 51°30' W 002°43'0 0.0
2014-Aug-20 14:32N 51°30' W 002°43'0 0.0
2014-Aug-20 13:22N 51°30' W 002°43'0 0.3
2014-Aug-20 12:28N 51°30' W 002°43'12 8.6
2014-Aug-20 11:05N 51°26' W 003°02'611.4
2014-Aug-20 10:33N 51°23' W 003°10'9 8.1
2014-Aug-20 09:30N 51°20' W 003°23'87 7.0
2014-Aug-19 21:06N 50°38' W 005°23'4 8.1
2014-Aug-19 20:33N 50°35' W 005°28'8 8.2
2014-Aug-19 19:33N 50°29' W 005°38'217 6.6
2014-Aug-18 10:31N 50°33' E 000°03'9 9.0
2014-Aug-18 09:32N 50°35' E 000°17'1010.2
2014-Aug-18 08:33N 50°38' E 000°32'9 9.1
2014-Aug-18 07:33N 50°43' E 000°44'8 8.4
2014-Aug-18 06:33N 50°48' E 000°55'22 7.4
2014-Aug-18 03:33N 51°02' E 001°22'8 7.9
2014-Aug-18 02:33N 51°06' E 001°32'9 9.4
2014-Aug-18 01:34N 51°12' E 001°44'1010.2
2014-Aug-18 00:34N 51°21' E 001°52'133 6.6
2014-Aug-17 04:31N 53°04' E 004°11'33 7.3
2014-Aug-17 00:03N 53°30' E 004°43'5 6.6
2014-Aug-16 23:17N 53°32' E 004°51'5 6.2
2014-Aug-16 22:33N 53°33' E 004°58'6 5.7
2014-Aug-16 21:33N 53°35' E 005°07'6 5.8
2014-Aug-16 20:33N 53°37' E 005°17'7 6.9
2014-Aug-16 19:33N 53°39' E 005°27'9 8.5
2014-Aug-16 18:33N 53°42' E 005°41'9 9.2
2014-Aug-16 17:33N 53°45' E 005°56'57 7.8
2014-Aug-16 10:15N 53°60' E 007°29'6 8.1
2014-Aug-16 09:33N 54°01' E 007°38'9 8.8
2014-Aug-16 08:33N 54°01' E 007°53'10 9.6
2014-Aug-16 07:33N 54°01' E 008°10'1111.2
2014-Aug-16 06:33N 53°59' E 008°28'1010.2
2014-Aug-16 05:33N 53°53' E 008°43'8 7.9
2014-Aug-16 04:33N 53°51' E 008°55'7 7.3
2014-Aug-16 03:33N 53°53' E 009°07'1 1.2
2014-Aug-16 02:33N 53°54' E 009°09'5 4.8
2014-Aug-16 01:33N 53°57' E 009°14'6 5.7
2014-Aug-16 00:33N 54°02' E 009°18'6 6.4
2014-Aug-15 23:33N 54°08' E 009°21'7 6.7
2014-Aug-15 22:33N 54°11' E 009°31'73 6.0
2014-Aug-15 10:28N 54°31' E 011°31'7 7.4
2014-Aug-15 09:33N 54°28' E 011°42'7 7.3
2014-Aug-15 08:33N 54°27' E 011°54'8 7.9
2014-Aug-15 07:32N 54°27' E 012°08'11 9.0
2014-Aug-15 06:18N 54°37' E 012°16'8 9.3
2014-Aug-15 05:28N 54°42' E 012°27'9 9.5
2014-Aug-15 04:33N 54°46' E 012°40'28 9.4
2014-Aug-15 01:32N 54°56' E 013°26'10 9.5
2014-Aug-15 00:31N 54°59' E 013°42'9 9.3
2014-Aug-14 23:33N 55°03' E 013°57'21 9.1
2014-Aug-14 21:15N 55°17' E 014°23'7 9.1
2014-Aug-14 20:28N 55°23' E 014°31'10 8.9
2014-Aug-14 19:19N 55°29' E 014°45'8 8.8
2014-Aug-14 18:24N 55°33' E 014°58'10 8.7
2014-Aug-14 17:18N 55°38' E 015°12'8 8.5
2014-Aug-14 16:18N 55°42' E 015°25'6 8.4
2014-Aug-14 15:33N 55°45' E 015°35'11 8.6
2014-Aug-14 14:14N 55°51' E 015°52'93 9.4
2014-Aug-14 04:18N 56°38' E 018°18'  

Dump ship's entire track history